Time;durP1;ratioP1;P1;durP2;ratioP2;P2;SDS_P1;SDS_P2;PMS_P1;PMS_P2;Temp;Humidity;BMP_temperature;BMP_pressure;BME280_temperature;BME280_humidity;BME280_pressure;Samples;Min_cycle;Max_cycle;Signal;HPM_P1;HPM_P2
2021/05/16 00:02:17;;;;;;;8.13;2.70;;;;;;;23.76;42.26;98797.37;4470790;32;34676;-59
2021/05/16 00:04:45;;;;;;;7.10;2.92;;;;;;;23.77;42.30;98799.00;4483137;32;33898;-59
2021/05/16 00:07:13;;;;;;;7.45;2.58;;;;;;;23.77;42.26;98800.91;4483280;32;34712;-59
2021/05/16 00:09:40;;;;;;;7.25;2.80;;;;;;;23.78;42.24;98794.38;4482997;32;34414;-59
2021/05/16 00:12:09;;;;;;;8.60;3.05;;;;;;;23.78;42.18;98795.22;4472974;32;33740;-59
2021/05/16 00:14:37;;;;;;;7.28;3.05;;;;;;;23.77;42.22;98796.28;4478968;32;36059;-60
2021/05/16 00:17:04;;;;;;;6.97;3.45;;;;;;;23.79;42.18;98790.59;4478280;32;33574;-59
2021/05/16 00:19:32;;;;;;;5.82;2.60;;;;;;;23.79;42.23;98787.88;4482170;32;34295;-59
2021/05/16 00:22:00;;;;;;;7.97;3.47;;;;;;;23.77;42.30;98787.28;4482859;32;33975;-60
2021/05/16 00:24:28;;;;;;;6.87;3.05;;;;;;;23.77;42.43;98793.56;4472362;32;35048;-60
2021/05/16 00:26:56;;;;;;;7.55;3.17;;;;;;;23.76;42.49;98786.47;4467440;32;34352;-59
2021/05/16 00:29:24;;;;;;;6.40;2.80;;;;;;;23.75;42.50;98784.00;4467240;32;33263;-60
2021/05/16 00:31:51;;;;;;;7.47;2.78;;;;;;;23.74;42.50;98785.91;4472379;32;33207;-60
2021/05/16 00:34:20;;;;;;;6.35;2.85;;;;;;;23.76;42.53;98786.47;4482906;32;33815;-60
2021/05/16 00:36:47;;;;;;;6.32;2.60;;;;;;;23.74;42.51;98785.91;4482897;32;34610;-59
2021/05/16 00:39:15;;;;;;;7.25;2.42;;;;;;;23.74;42.50;98787.81;4482753;32;33097;-59
2021/05/16 00:41:43;;;;;;;6.37;2.83;;;;;;;23.74;42.50;98785.09;4482599;32;33599;-60
2021/05/16 00:44:10;;;;;;;10.18;2.60;;;;;;;23.73;42.51;98786.97;4482691;32;33685;-60
2021/05/16 00:46:38;;;;;;;7.12;2.60;;;;;;;23.74;42.50;98783.19;4482676;32;33496;-59
2021/05/16 00:49:06;;;;;;;6.50;2.95;;;;;;;23.74;42.50;98782.37;4482674;32;34018;-60
2021/05/16 00:51:33;;;;;;;7.75;3.00;;;;;;;23.73;42.51;98777.97;4482785;32;34641;-60
2021/05/16 00:54:01;;;;;;;10.60;2.90;;;;;;;23.74;42.50;98782.37;4482578;32;33860;-60
2021/05/16 00:56:29;;;;;;;6.30;2.70;;;;;;;23.74;42.49;98774.19;4481310;32;34150;-60
2021/05/16 00:58:59;;;;;;;8.88;2.80;;;;;;;23.73;42.49;98767.06;4468422;32;34454;-60
2021/05/16 01:01:27;;;;;;;6.85;2.70;;;;;;;23.73;42.41;98765.19;4482239;32;33834;-60
2021/05/16 01:03:55;;;;;;;6.53;3.08;;;;;;;23.73;42.38;98764.34;4484820;32;34763;-60
2021/05/16 01:06:23;;;;;;;7.30;2.70;;;;;;;23.72;42.39;98766.25;4483644;31;34464;-61
2021/05/16 01:08:56;;;;;;;9.38;2.65;;;;;;;23.72;42.32;98774.44;4481423;32;33236;-60
2021/05/16 01:11:28;;;;;;;6.62;2.90;;;;;;;23.72;42.35;98768.16;4481739;32;34541;-59
2021/05/16 01:13:56;;;;;;;6.05;2.75;;;;;;;23.72;42.35;98760.00;4484693;32;34905;-60
2021/05/16 01:16:24;;;;;;;8.85;2.50;;;;;;;23.71;42.40;98761.91;4479508;32;33720;-59
2021/05/16 01:18:52;;;;;;;6.35;2.58;;;;;;;23.71;42.41;98759.19;4469004;32;32644;-60
2021/05/16 01:21:21;;;;;;;6.60;2.83;;;;;;;23.71;42.36;98755.62;4483423;32;34920;-59
2021/05/16 01:23:49;;;;;;;6.40;2.37;;;;;;;23.70;42.41;98752.09;4483629;32;34150;-60
2021/05/16 01:26:18;;;;;;;6.78;2.72;;;;;;;23.70;42.36;98754.81;4484783;32;33897;-60
2021/05/16 01:28:45;;;;;;;6.57;2.72;;;;;;;23.69;42.37;98755.88;4479246;32;33160;-59
2021/05/16 01:31:13;;;;;;;6.82;2.80;;;;;;;23.70;42.36;98756.72;4468827;32;34012;-60
2021/05/16 01:33:41;;;;;;;6.32;2.67;;;;;;;23.70;42.33;98751.25;4479409;32;34157;-60
2021/05/16 01:36:09;;;;;;;8.95;2.60;;;;;;;23.68;42.80;98749.59;4484534;32;33747;-60
2021/05/16 01:38:37;;;;;;;5.28;2.70;;;;;;;23.70;42.74;98751.25;4467633;32;33307;-61
2021/05/16 01:41:04;;;;;;;7.18;2.95;;;;;;;23.70;42.71;98751.25;4468692;32;33837;-60
2021/05/16 01:43:34;;;;;;;7.95;2.70;;;;;;;23.70;42.71;98749.34;4468629;32;33437;-60
2021/05/16 01:46:04;;;;;;;6.03;2.55;;;;;;;23.70;42.72;98746.62;4468793;32;34010;-61
2021/05/16 01:48:32;;;;;;;4.35;2.40;;;;;;;23.70;42.68;98746.62;4467741;32;34497;-60
2021/05/16 01:50:59;;;;;;;5.47;2.50;;;;;;;23.71;42.71;98744.75;4473516;32;33821;-60
2021/05/16 01:53:27;;;;;;;6.60;2.70;;;;;;;23.70;42.71;98738.47;4484788;32;34581;-61
2021/05/16 01:55:55;;;;;;;9.95;2.67;;;;;;;23.70;42.72;98743.91;4484402;32;33997;-61
2021/05/16 01:58:22;;;;;;;4.90;2.17;;;;;;;23.70;42.54;98741.19;4484696;32;34002;-61
2021/05/16 02:00:50;;;;;;;8.07;2.60;;;;;;;23.71;42.60;98731.94;4470306;32;33549;-61
2021/05/16 02:03:19;;;;;;;6.00;2.80;;;;;;;23.72;42.64;98733.56;4483060;32;35385;-60
2021/05/16 02:05:50;;;;;;;8.55;2.53;;;;;;;23.71;42.80;98739.28;4483154;32;33915;-61
2021/05/16 02:08:18;;;;;;;5.82;2.70;;;;;;;23.70;42.78;98733.03;4484304;32;33411;-60
2021/05/16 02:10:46;;;;;;;6.00;2.53;;;;;;;23.70;42.73;98737.66;4484439;32;33830;-60
2021/05/16 02:13:14;;;;;;;7.57;2.40;;;;;;;23.71;42.68;98736.56;4484167;32;33523;-60
2021/05/16 02:15:43;;;;;;;5.75;2.37;;;;;;;23.70;42.65;98733.03;4484336;32;33700;-61
2021/05/16 02:18:16;;;;;;;7.22;2.50;;;;;;;23.70;42.64;98732.19;4484520;32;33144;-60
2021/05/16 02:20:44;;;;;;;5.07;2.37;;;;;;;23.70;42.63;98724.03;4484573;32;34590;-61
2021/05/16 02:23:12;;;;;;;8.82;2.60;;;;;;;23.70;42.60;98724.84;4484395;32;33533;-60
2021/05/16 02:25:40;;;;;;;6.87;2.50;;;;;;;23.71;42.62;98725.66;4484294;32;33949;-60
2021/05/16 02:28:13;;;;;;;6.10;2.40;;;;;;;23.69;42.61;98717.75;4484265;32;33103;-60
2021/05/16 02:30:41;;;;;;;7.70;2.25;;;;;;;23.70;42.60;98724.03;4484422;32;33617;-61
2021/05/16 02:33:09;;;;;;;6.22;2.70;;;;;;;23.69;42.62;98725.94;4484564;32;33825;-61
2021/05/16 02:35:38;;;;;;;6.68;2.53;;;;;;;23.71;42.63;98714.78;4484244;32;34031;-60
2021/05/16 02:38:05;;;;;;;7.28;2.62;;;;;;;23.69;42.80;98723.22;4484091;32;33542;-61
2021/05/16 02:40:33;;;;;;;7.90;2.62;;;;;;;23.69;42.74;98715.03;4484424;32;33735;-60
2021/05/16 02:43:01;;;;;;;6.90;2.72;;;;;;;23.69;42.76;98717.75;4483176;32;34450;-61
2021/05/16 02:45:30;;;;;;;6.60;2.30;;;;;;;23.69;42.88;98712.31;4483998;32;34480;-61
2021/05/16 02:47:58;;;;;;;7.28;2.92;;;;;;;23.70;42.89;98708.50;4484471;32;34074;-61
2021/05/16 02:50:27;;;;;;;5.00;2.35;;;;;;;23.69;43.00;98709.59;4484451;32;32379;-60
2021/05/16 02:52:55;;;;;;;6.20;2.70;;;;;;;23.69;42.93;98706.88;4484061;32;33570;-60
2021/05/16 02:55:23;;;;;;;5.93;2.20;;;;;;;23.68;43.02;98711.47;4484018;32;33844;-60
2021/05/16 02:57:51;;;;;;;6.20;2.47;;;;;;;23.68;42.97;98714.19;4484078;32;33261;-60
2021/05/16 03:00:20;;;;;;;6.43;2.17;;;;;;;23.67;42.91;98707.09;4484340;32;34781;-60
2021/05/16 03:02:48;;;;;;;7.60;2.87;;;;;;;23.67;42.90;98704.38;4484082;32;33842;-61
2021/05/16 03:05:16;;;;;;;5.40;2.20;;;;;;;23.66;42.91;98708.19;4483818;32;33745;-60
2021/05/16 03:07:46;;;;;;;4.72;2.22;;;;;;;23.67;42.98;98709.00;4484091;31;34161;-60
2021/05/16 03:10:14;;;;;;;6.00;2.50;;;;;;;23.67;42.91;98717.19;4484251;32;33820;-60
2021/05/16 03:12:42;;;;;;;5.35;2.53;;;;;;;23.67;42.90;98709.81;4483714;32;34871;-60
2021/05/16 03:15:10;;;;;;;7.80;2.30;;;;;;;23.65;42.93;98714.72;4483947;32;33871;-60
2021/05/16 03:17:38;;;;;;;7.40;2.58;;;;;;;23.66;42.72;98710.91;4483922;32;33120;-61
2021/05/16 03:20:06;;;;;;;7.25;2.55;;;;;;;23.68;42.85;98710.66;4483750;32;33803;-60
2021/05/16 03:22:35;;;;;;;6.65;2.30;;;;;;;23.66;42.81;98707.38;4484096;32;34093;-61
2021/05/16 03:25:04;;;;;;;4.37;2.05;;;;;;;23.66;42.92;98702.75;4482510;32;35088;-62
2021/05/16 03:27:32;;;;;;;6.97;2.80;;;;;;;23.67;42.83;98709.00;4483583;32;33594;-60
2021/05/16 03:29:59;;;;;;;8.98;2.40;;;;;;;23.67;42.78;98703.56;4483789;32;33403;-60
2021/05/16 03:32:27;;;;;;;6.43;2.30;;;;;;;23.65;42.82;98701.09;4483665;32;33588;-60
2021/05/16 03:34:54;;;;;;;4.72;2.10;;;;;;;23.66;42.81;98704.66;4483348;32;33805;-60
2021/05/16 03:37:22;;;;;;;4.65;2.10;;;;;;;23.67;42.77;98703.56;4483680;32;34425;-60
2021/05/16 03:39:50;;;;;;;4.87;2.03;;;;;;;23.66;42.73;98704.66;4483542;32;34545;-61
2021/05/16 03:42:17;;;;;;;6.40;2.47;;;;;;;23.65;42.69;98706.56;4483777;32;33930;-60
2021/05/16 03:44:45;;;;;;;5.28;2.00;;;;;;;23.66;42.67;98701.91;4483563;32;33376;-60
2021/05/16 03:47:13;;;;;;;5.60;2.35;;;;;;;23.67;42.69;98707.09;4483537;32;33404;-60
2021/05/16 03:49:40;;;;;;;4.95;2.20;;;;;;;23.66;42.73;98699.19;4483304;32;33882;-61
2021/05/16 03:52:08;;;;;;;6.00;2.20;;;;;;;23.66;42.78;98700.03;4483538;32;33548;-61
2021/05/16 03:54:36;;;;;;;5.00;2.20;;;;;;;23.66;42.82;98702.75;4483516;32;34447;-60
2021/05/16 03:57:04;;;;;;;4.05;2.05;;;;;;;23.66;42.87;98702.75;4483271;32;33338;-61
2021/05/16 03:59:32;;;;;;;7.12;2.40;;;;;;;23.66;42.86;98707.38;4483359;32;34648;-61
2021/05/16 04:01:59;;;;;;;6.00;2.47;;;;;;;23.66;42.84;98713.63;4483627;32;33834;-60
2021/05/16 04:04:28;;;;;;;8.73;2.72;;;;;;;23.66;42.80;98701.91;4483129;32;33785;-60
2021/05/16 04:06:56;;;;;;;7.95;2.67;;;;;;;23.65;42.81;98709.28;4483196;32;33229;-61
2021/05/16 04:09:24;;;;;;;6.00;2.55;;;;;;;23.65;42.79;98711.19;4482576;32;33895;-61
2021/05/16 04:11:52;;;;;;;5.22;2.08;;;;;;;23.66;42.78;98712.81;4483411;32;33823;-60
2021/05/16 04:14:23;;;;;;;5.60;2.28;;;;;;;23.66;42.78;98715.53;4483201;32;33932;-60
2021/05/16 04:16:51;;;;;;;9.20;2.30;;;;;;;23.67;42.79;98717.19;4483021;32;34389;-60
2021/05/16 04:19:18;;;;;;;10.32;2.50;;;;;;;23.66;42.75;98718.25;4481907;32;34006;-61
2021/05/16 04:21:46;;;;;;;12.85;2.15;;;;;;;23.66;42.81;98727.25;4483160;32;33908;-61
2021/05/16 04:24:14;;;;;;;6.40;2.35;;;;;;;23.66;42.82;98745.50;4482823;32;33866;-60
2021/05/16 04:26:42;;;;;;;5.45;2.50;;;;;;;23.65;42.87;98739.22;4483006;32;33413;-61
2021/05/16 04:29:09;;;;;;;4.50;1.98;;;;;;;23.66;42.94;98748.22;4482954;32;33812;-61
2021/05/16 04:31:37;;;;;;;6.07;2.00;;;;;;;23.65;42.79;98739.22;4482698;32;34858;-61
2021/05/16 04:34:05;;;;;;;5.03;2.08;;;;;;;23.66;42.79;98750.94;4481625;32;34696;-61
2021/05/16 04:36:32;;;;;;;4.85;1.98;;;;;;;23.66;42.86;98753.66;4483772;32;32911;-60
2021/05/16 04:39:00;;;;;;;7.12;2.12;;;;;;;23.65;42.73;98754.75;4484767;32;33794;-60
2021/05/16 04:41:28;;;;;;;5.90;1.98;;;;;;;23.65;42.87;98749.31;4484980;32;33800;-60
2021/05/16 04:43:55;;;;;;;5.57;2.03;;;;;;;23.64;43.00;98748.47;4483930;32;33822;-60
2021/05/16 04:46:23;;;;;;;4.53;2.08;;;;;;;23.65;42.90;98741.94;4484779;32;33287;-61
2021/05/16 04:48:51;;;;;;;6.32;2.30;;;;;;;23.64;42.90;98753.94;4485249;32;34575;-61
2021/05/16 04:51:18;;;;;;;4.97;2.15;;;;;;;23.64;42.97;98753.06;4485032;32;34528;-60
2021/05/16 04:53:46;;;;;;;4.95;2.25;;;;;;;23.64;43.00;98756.66;4485087;32;33743;-61
2021/05/16 04:56:14;;;;;;;6.25;1.98;;;;;;;23.64;43.00;98748.47;4484841;32;33021;-61
2021/05/16 04:58:41;;;;;;;7.90;2.10;;;;;;;23.65;42.93;98754.75;4484904;32;33561;-61
2021/05/16 05:01:09;;;;;;;7.32;2.20;;;;;;;23.64;42.93;98756.66;4484845;32;33910;-60
2021/05/16 05:03:37;;;;;;;3.87;1.80;;;;;;;23.64;43.03;98748.47;4484618;32;34001;-60
2021/05/16 05:06:04;;;;;;;5.00;2.30;;;;;;;23.63;43.08;98754.94;4484854;32;34490;-61
2021/05/16 05:08:32;;;;;;;5.20;1.85;;;;;;;23.64;42.92;98753.06;4484573;32;33785;-61
2021/05/16 05:11:00;;;;;;;5.85;2.00;;;;;;;23.65;42.87;98761.00;4484881;32;34768;-60
2021/05/16 05:13:28;;;;;;;6.30;1.95;;;;;;;23.64;42.83;98766.69;4484821;32;34595;-61
2021/05/16 05:15:56;;;;;;;5.28;2.47;;;;;;;23.63;42.93;98763.12;4484823;32;33544;-59
2021/05/16 05:18:24;;;;;;;9.18;2.08;;;;;;;23.64;42.91;98755.81;4484742;32;34619;-61
2021/05/16 05:20:52;;;;;;;5.97;2.12;;;;;;;23.62;43.00;98764.19;4477671;32;33891;-60
2021/05/16 05:23:19;;;;;;;5.95;1.92;;;;;;;23.64;42.91;98762.09;4498678;31;33780;-60
2021/05/16 05:25:47;;;;;;;6.60;2.33;;;;;;;23.66;42.73;98759.94;4492740;31;33602;-60
2021/05/16 05:28:18;;;;;;;6.90;2.20;;;;;;;23.68;42.75;98765.94;4484521;32;33462;-60
2021/05/16 05:30:45;;;;;;;3.78;1.92;;;;;;;23.65;42.99;98782.81;4484231;32;33627;-60
2021/05/16 05:33:13;;;;;;;5.55;2.17;;;;;;;23.66;42.98;98775.44;4484408;32;33739;-61
2021/05/16 05:35:41;;;;;;;5.28;2.30;;;;;;;23.65;42.92;98774.63;4484284;32;33281;-60
2021/05/16 05:38:08;;;;;;;6.20;2.00;;;;;;;23.66;42.93;98779.00;4484178;32;33504;-61
2021/05/16 05:40:37;;;;;;;9.60;2.03;;;;;;;23.66;43.08;98783.63;4484311;32;33811;-60
2021/05/16 05:43:05;;;;;;;5.18;1.80;;;;;;;23.67;43.05;98779.81;4484263;32;33610;-60
2021/05/16 05:45:33;;;;;;;4.90;1.92;;;;;;;23.67;42.98;98785.25;4484095;32;33031;-60
2021/05/16 05:48:01;;;;;;;5.03;2.00;;;;;;;23.66;43.07;98784.44;4483600;32;33933;-61
2021/05/16 05:50:28;;;;;;;6.68;2.00;;;;;;;23.67;43.00;98786.09;4484237;32;34677;-60
2021/05/16 05:52:59;;;;;;;3.58;1.85;;;;;;;23.66;43.03;98781.72;4484348;32;33888;-61
2021/05/16 05:55:27;;;;;;;6.85;2.10;;;;;;;23.66;43.02;98792.62;4484379;32;33252;-60
2021/05/16 05:57:54;;;;;;;6.62;1.95;;;;;;;23.68;42.91;98790.44;4484118;32;33682;-59
2021/05/16 06:00:22;;;;;;;4.22;1.90;;;;;;;23.68;42.96;98787.72;4482963;32;33132;-61
2021/05/16 06:02:51;;;;;;;4.80;1.92;;;;;;;23.69;42.89;98799.47;4483879;32;33787;-60
2021/05/16 06:05:18;;;;;;;5.18;1.75;;;;;;;23.70;42.91;98795.66;4484044;32;33350;-61
2021/05/16 06:07:46;;;;;;;5.75;1.83;;;;;;;23.70;42.92;98805.72;4484146;32;33584;-60
2021/05/16 06:10:13;;;;;;;6.10;2.28;;;;;;;23.71;42.84;98801.94;4484182;32;33909;-60
2021/05/16 06:12:41;;;;;;;6.85;2.25;;;;;;;23.70;42.89;98803.00;4484021;32;33763;-61
2021/05/16 06:15:09;;;;;;;5.18;2.17;;;;;;;23.74;42.79;98806.88;4484030;32;33335;-61
2021/05/16 06:17:37;;;;;;;4.80;1.75;;;;;;;23.71;42.87;98810.91;4484177;32;33726;-60
2021/05/16 06:20:05;;;;;;;7.82;2.20;;;;;;;23.71;42.82;98807.38;4484025;32;34795;-60
2021/05/16 06:22:34;;;;;;;4.30;1.90;;;;;;;23.72;42.85;98809.00;4484201;32;33783;-60
2021/05/16 06:25:02;;;;;;;6.22;1.98;;;;;;;23.72;42.86;98814.47;4481379;32;33390;-59
2021/05/16 06:27:29;;;;;;;7.60;2.00;;;;;;;23.73;42.83;98807.94;4484345;31;33715;-60
2021/05/16 06:29:57;;;;;;;4.90;2.08;;;;;;;23.72;42.92;98798.94;4500077;31;33946;-60
2021/05/16 06:32:25;;;;;;;5.95;2.33;;;;;;;23.72;42.92;98803.56;4485231;31;34198;-60
2021/05/16 06:34:52;;;;;;;5.80;1.87;;;;;;;23.73;42.96;98797.03;4483785;32;33279;-60
2021/05/16 06:37:21;;;;;;;7.35;2.08;;;;;;;23.73;42.87;98799.75;4484052;32;33816;-60
2021/05/16 06:39:48;;;;;;;4.78;2.30;;;;;;;23.74;42.90;98798.72;4484123;32;33589;-61
2021/05/16 06:42:16;;;;;;;4.47;2.15;;;;;;;23.73;42.81;98795.13;4483854;32;34623;-61
2021/05/16 06:44:44;;;;;;;9.85;2.28;;;;;;;23.73;42.86;98799.75;4468462;32;33457;-61
2021/05/16 06:47:12;;;;;;;7.90;2.10;;;;;;;23.73;42.87;98805.22;4468166;32;34812;-59
2021/05/16 06:49:40;;;;;;;4.28;2.28;;;;;;;23.73;42.83;98805.22;4468027;32;34517;-61
2021/05/16 06:52:07;;;;;;;5.55;1.87;;;;;;;23.74;42.82;98804.16;4468471;32;33772;-60
2021/05/16 06:54:35;;;;;;;5.00;2.15;;;;;;;23.73;42.82;98797.03;4468303;32;33012;-60
2021/05/16 06:57:03;;;;;;;5.03;1.80;;;;;;;23.73;42.86;98806.03;4475993;32;33916;-60
2021/05/16 06:59:30;;;;;;;3.90;1.70;;;;;;;23.73;42.77;98800.59;4483561;32;33818;-59
2021/05/16 07:01:58;;;;;;;6.43;2.12;;;;;;;23.73;42.76;98805.22;4476499;32;33706;-60
2021/05/16 07:04:26;;;;;;;4.53;1.80;;;;;;;23.73;42.84;98800.59;4479150;32;33280;-60
2021/05/16 07:06:54;;;;;;;6.78;1.90;;;;;;;23.73;42.87;98797.03;4478606;32;33857;-60
2021/05/16 07:09:22;;;;;;;5.78;2.12;;;;;;;23.73;42.86;98803.31;4480868;32;33703;-60
2021/05/16 07:11:49;;;;;;;5.47;1.83;;;;;;;23.73;42.94;98803.31;4483669;32;33660;-60
2021/05/16 07:14:17;;;;;;;4.72;1.98;;;;;;;23.72;42.93;98809.84;4478533;32;33266;-60
2021/05/16 07:16:45;;;;;;;4.35;1.80;;;;;;;23.73;42.85;98805.22;4468100;32;34858;-60
2021/05/16 07:19:14;;;;;;;7.80;2.10;;;;;;;23.73;42.86;98799.75;4468482;32;33307;-61
2021/05/16 07:21:41;;;;;;;8.43;2.50;;;;;;;23.73;42.84;98797.03;4468236;32;33789;-60
2021/05/16 07:24:09;;;;;;;12.40;2.50;;;;;;;23.71;42.88;98802.75;4467969;32;33317;-60
2021/05/16 07:26:37;;;;;;;5.30;2.42;;;;;;;23.71;43.00;98796.47;4474379;32;34505;-60
2021/05/16 07:29:04;;;;;;;10.00;2.08;;;;;;;23.71;42.95;98796.47;4483804;32;33963;-61
2021/05/16 07:31:32;;;;;;;8.90;2.40;;;;;;;23.69;42.97;98788.56;4483442;32;34007;-60
2021/05/16 07:34:00;;;;;;;7.35;1.98;;;;;;;23.65;43.04;98793.69;4483729;32;33565;-61
2021/05/16 07:36:27;;;;;;;6.62;2.22;;;;;;;23.65;43.03;98793.69;4483467;32;34556;-60
2021/05/16 07:38:55;;;;;;;7.57;2.12;;;;;;;23.66;42.96;98794.50;4482602;32;33778;-60
2021/05/16 07:41:22;;;;;;;8.48;2.53;;;;;;;23.65;42.93;98790.97;4483717;32;33907;-60
2021/05/16 07:43:50;;;;;;;8.00;2.60;;;;;;;23.64;42.90;98797.50;4483615;32;33295;-60
2021/05/16 07:46:18;;;;;;;6.18;2.17;;;;;;;23.63;42.87;98786.81;4483327;32;33713;-60
2021/05/16 07:48:45;;;;;;;5.55;2.30;;;;;;;23.61;42.88;98789.78;4483355;32;33822;-60
2021/05/16 07:51:13;;;;;;;7.62;2.58;;;;;;;23.62;42.85;98788.72;4483299;32;35172;-60
2021/05/16 07:53:41;;;;;;;8.93;2.25;;;;;;;23.62;42.82;98788.72;4483248;32;33359;-60
2021/05/16 07:56:10;;;;;;;5.37;2.40;;;;;;;23.63;42.75;98789.53;4483268;32;33721;-60
2021/05/16 07:58:38;;;;;;;6.82;2.10;;;;;;;23.63;42.76;98800.41;4483381;32;34975;-60
2021/05/16 08:01:05;;;;;;;6.95;2.53;;;;;;;23.63;42.74;98793.06;4483168;32;34639;-60
2021/05/16 08:03:33;;;;;;;3.95;2.03;;;;;;;23.62;42.71;98796.06;4473973;31;33331;-61
2021/05/16 08:06:01;;;;;;;6.97;2.15;;;;;;;23.62;42.70;98802.31;4467476;32;33526;-61
2021/05/16 08:08:34;;;;;;;4.82;1.90;;;;;;;23.62;42.73;98796.87;4474446;32;35141;-60
2021/05/16 08:11:01;;;;;;;6.60;2.47;;;;;;;23.63;42.75;98794.97;4483490;32;33590;-60
2021/05/16 08:13:29;;;;;;;6.22;2.20;;;;;;;23.63;42.78;98797.69;4484869;32;33058;-61
2021/05/16 08:15:57;;;;;;;7.20;1.85;;;;;;;23.63;42.86;98801.25;4484823;32;35234;-60
2021/05/16 08:18:25;;;;;;;5.43;1.92;;;;;;;23.64;42.79;98793.94;4485083;32;33602;-60
2021/05/16 08:20:55;;;;;;;9.40;2.17;;;;;;;23.64;42.81;98802.94;4476444;32;33940;-61
2021/05/16 08:23:23;;;;;;;8.65;1.80;;;;;;;23.66;42.81;98797.25;4469154;32;34550;-61
2021/05/16 08:25:50;;;;;;;4.10;1.87;;;;;;;23.65;42.88;98799.13;4469044;32;33891;-61
2021/05/16 08:28:18;;;;;;;4.72;1.92;;;;;;;23.65;42.97;98798.31;4469194;32;34444;-61
2021/05/16 08:30:47;;;;;;;3.97;1.73;;;;;;;23.68;42.89;98808.69;4469147;32;33734;-61
2021/05/16 08:33:14;;;;;;;7.22;2.00;;;;;;;23.69;42.85;98804.91;4469137;32;33269;-61
2021/05/16 08:35:42;;;;;;;6.30;2.15;;;;;;;23.70;42.90;98800.28;4469427;32;33661;-60
2021/05/16 08:38:10;;;;;;;4.53;2.10;;;;;;;23.67;42.97;98799.69;4469255;32;33894;-61
2021/05/16 08:40:37;;;;;;;5.45;2.00;;;;;;;23.70;42.99;98800.28;4469163;32;34565;-60
2021/05/16 08:43:05;;;;;;;6.60;1.90;;;;;;;23.70;43.02;98808.47;4469262;32;34147;-60
2021/05/16 08:45:33;;;;;;;7.20;2.00;;;;;;;23.69;43.09;98799.47;4468955;32;34868;-61
2021/05/16 08:48:01;;;;;;;7.85;1.85;;;;;;;23.70;43.09;98797.56;4469187;32;33920;-61
2021/05/16 08:50:29;;;;;;;10.02;1.75;;;;;;;23.68;43.11;98787.72;4469048;32;33733;-61
2021/05/16 08:52:57;;;;;;;6.85;2.33;;;;;;;23.70;43.07;98800.28;4469084;32;33333;-61
2021/05/16 08:55:27;;;;;;;4.18;1.80;;;;;;;23.70;43.09;98801.09;4467909;32;33622;-61
2021/05/16 08:57:54;;;;;;;4.37;1.67;;;;;;;23.71;43.03;98799.22;4478949;32;33655;-60
2021/05/16 09:00:24;;;;;;;6.40;1.80;;;;;;;23.71;43.07;98816.38;4483506;32;33681;-61
2021/05/16 09:03:05;;;;;;;6.95;2.40;;;;;;;23.69;43.13;98815.81;4484660;32;33260;-61
2021/05/16 09:05:38;;;;;;;6.22;1.70;;;;;;;23.71;43.06;98821.81;4484484;32;34714;-60
2021/05/16 09:08:12;;;;;;;4.20;1.90;;;;;;;23.68;43.11;98817.69;4484786;32;33863;-60
2021/05/16 09:10:42;;;;;;;4.75;1.85;;;;;;;23.68;43.11;98819.59;4484497;32;34113;-60
2021/05/16 09:13:17;;;;;;;5.20;1.90;;;;;;;23.66;43.08;98822.56;4484510;32;34682;-60
2021/05/16 09:16:09;;;;;;;9.88;2.45;;;;;;;23.66;43.18;98828.00;4484490;32;33652;-61
2021/05/16 09:18:40;;;;;;;6.07;2.10;;;;;;;23.68;43.09;98831.31;4483580;32;35033;-61
2021/05/16 09:21:31;;;;;;;5.40;2.03;;;;;;;23.67;43.10;98831.56;4483762;32;33786;-62
2021/05/16 09:24:02;;;;;;;5.85;1.70;;;;;;;23.70;43.00;98839.25;4483657;32;34058;-62
2021/05/16 09:26:58;;;;;;;5.43;1.80;;;;;;;23.65;43.16;98840.00;4483691;32;33807;-62
2021/05/16 09:29:32;;;;;;;7.65;1.73;;;;;;;23.65;43.15;98831.81;4483938;32;34465;-62
2021/05/16 09:32:01;;;;;;;6.57;1.92;;;;;;;23.65;43.02;98826.38;4484213;32;33684;-62
2021/05/16 09:34:30;;;;;;;8.05;2.00;;;;;;;23.65;43.06;98831.00;4483880;32;34237;-61
2021/05/16 09:36:57;;;;;;;4.80;1.80;;;;;;;23.64;43.05;98830.19;4484184;32;33791;-61
2021/05/16 09:39:31;;;;;;;8.07;1.92;;;;;;;23.63;43.07;98841.28;4484632;32;33843;-61
2021/05/16 09:42:06;;;;;;;8.25;2.08;;;;;;;23.65;43.06;98841.91;4484404;32;34667;-61
2021/05/16 09:44:44;;;;;;;7.30;2.00;;;;;;;23.65;42.95;98845.44;4483413;32;33269;-61
2021/05/16 09:47:19;;;;;;;9.52;2.03;;;;;;;23.65;42.95;98845.44;4484418;32;33916;-61
2021/05/16 09:49:57;;;;;;;4.43;1.50;;;;;;;23.64;43.04;98841.06;4484001;32;33886;-61
2021/05/16 09:52:34;;;;;;;5.32;1.50;;;;;;;23.63;42.98;98846.72;4484396;32;33871;-62
2021/05/16 09:55:09;;;;;;;6.75;2.00;;;;;;;23.63;42.98;98847.53;4483994;32;33329;-61
2021/05/16 09:57:38;;;;;;;5.95;1.90;;;;;;;23.63;42.91;98847.53;4484309;32;34683;-61
2021/05/16 10:00:07;;;;;;;7.25;1.60;;;;;;;23.61;42.94;98852.44;4484187;32;34748;-61
2021/05/16 10:02:35;;;;;;;5.57;1.75;;;;;;;23.63;42.90;98844.00;4482816;32;33779;-61
2021/05/16 10:05:04;;;;;;;5.03;1.40;;;;;;;23.64;42.83;98845.66;4479044;32;33529;-60
2021/05/16 10:07:31;;;;;;;5.25;1.27;;;;;;;23.65;42.73;98841.91;4477509;32;33737;-61
2021/05/16 10:09:59;;;;;;;6.75;1.50;;;;;;;23.64;42.68;98843.78;4483810;32;34565;-61
2021/05/16 10:12:27;;;;;;;4.57;1.37;;;;;;;23.64;42.72;98845.66;4484105;32;33859;-61
2021/05/16 10:15:00;;;;;;;5.10;1.80;;;;;;;23.62;42.70;98843.16;4468696;32;33178;-61
2021/05/16 10:17:29;;;;;;;5.18;1.52;;;;;;;23.62;42.60;98843.16;4468372;32;34695;-61
2021/05/16 10:19:57;;;;;;;5.65;1.58;;;;;;;23.65;42.53;98834.53;4454392;32;33527;-61
2021/05/16 10:22:27;;;;;;;6.32;1.25;;;;;;;23.63;42.46;98823.03;4476684;32;33842;-60
2021/05/16 10:25:00;;;;;;;5.15;1.50;;;;;;;23.64;42.44;98838.34;4483956;32;33338;-61
2021/05/16 10:27:29;;;;;;;9.68;1.37;;;;;;;23.62;42.42;98839.62;4476840;32;33098;-60
2021/05/16 10:29:58;;;;;;;7.85;1.30;;;;;;;23.62;42.40;98839.62;4480549;32;34063;-61
2021/05/16 10:32:35;;;;;;;4.43;1.12;;;;;;;23.65;42.34;98841.91;4484173;32;33751;-61
2021/05/16 10:35:09;;;;;;;5.53;1.25;;;;;;;23.65;42.30;98842.72;4482786;32;33297;-62
2021/05/16 10:37:54;;;;;;;5.53;1.40;;;;;;;23.65;42.31;98848.16;4483717;32;34616;-61
2021/05/16 10:40:23;;;;;;;2.15;1.00;;;;;;;23.64;42.28;98860.13;4483919;32;33892;-62
2021/05/16 10:42:56;;;;;;;7.05;1.45;;;;;;;23.63;42.26;98852.97;4484025;32;33801;-62
2021/05/16 10:45:36;;;;;;;6.80;1.35;;;;;;;23.64;42.23;98860.13;4483840;32;33323;-61
2021/05/16 10:48:16;;;;;;;11.07;1.45;;;;;;;23.66;42.17;98868.88;4483895;32;33827;-61
2021/05/16 10:51:01;;;;;;;4.82;1.08;;;;;;;23.65;42.17;98860.97;4483926;32;33845;-62
2021/05/16 10:53:39;;;;;;;5.37;1.27;;;;;;;23.66;42.15;98860.69;4483708;32;33963;-62
2021/05/16 10:56:11;;;;;;;3.17;0.80;;;;;;;23.64;42.12;98864.72;4484183;32;33308;-62
2021/05/16 10:58:40;;;;;;;4.05;1.08;;;;;;;23.64;42.08;98867.44;4478980;32;33621;-62
2021/05/16 11:01:15;;;;;;;3.40;1.00;;;;;;;23.65;42.03;98871.84;4472154;32;33202;-62
2021/05/16 11:03:51;;;;;;;4.20;1.10;;;;;;;23.65;41.96;98869.12;4472862;32;33888;-60
2021/05/16 11:06:42;;;;;;;7.97;1.20;;;;;;;23.62;41.98;98878.56;4483062;32;34020;-61
2021/05/16 11:09:10;;;;;;;5.22;1.30;;;;;;;23.65;41.85;98867.22;4476070;31;33642;-61
2021/05/16 11:11:50;;;;;;;4.00;1.25;;;;;;;23.64;41.86;98862.00;4483925;32;34903;-62
2021/05/16 11:14:24;;;;;;;4.47;1.15;;;;;;;23.63;41.90;98857.59;4484061;32;34613;-61
2021/05/16 11:16:59;;;;;;;2.83;1.20;;;;;;;23.63;41.88;98857.59;4472708;32;33294;-61
2021/05/16 11:19:29;;;;;;;3.85;0.90;;;;;;;23.63;41.92;98860.34;4467695;32;33798;-60
2021/05/16 11:21:57;;;;;;;5.37;1.10;;;;;;;23.63;41.90;98854.88;4468192;32;33909;-62
2021/05/16 11:24:35;;;;;;;6.93;1.37;;;;;;;23.64;41.87;98851.97;4467954;32;35218;-61
2021/05/16 11:27:18;;;;;;;4.60;1.20;;;;;;;23.67;41.83;98846.00;4467999;32;34280;-61
2021/05/16 11:30:08;;;;;;;4.90;1.12;;;;;;;23.65;41.87;98845.44;4474523;32;33933;-61
2021/05/16 11:32:36;;;;;;;;;;;;;;;23.65;41.90;98847.34;4483765;32;33686;-62
2021/05/16 11:35:18;;;;;;;7.35;1.08;;;;;;;23.73;41.71;98843.34;4483695;32;34028;-62
2021/05/16 11:37:48;;;;;;;10.65;1.50;;;;;;;23.68;41.77;98855.00;4483751;32;33504;-61
2021/05/16 11:40:24;;;;;;;7.12;1.00;;;;;;;23.65;41.80;98850.87;4483698;32;33495;-62
2021/05/16 11:42:59;;;;;;;7.03;1.55;;;;;;;23.65;41.79;98845.44;4483663;32;33791;-62
2021/05/16 11:45:28;;;;;;;3.67;0.90;;;;;;;23.64;41.80;98832.91;4482382;32;35336;-62